sensor_id;sensor_type;location;lat;lon;timestamp;temperature;humidity
82231;DHT22;71832;45.138;9.816;2023-08-30T00:01:33;19.10;81.20
82231;DHT22;71832;45.138;9.816;2023-08-30T00:04:01;19.10;81.20
82231;DHT22;71832;45.138;9.816;2023-08-30T00:06:28;19.00;81.80
82231;DHT22;71832;45.138;9.816;2023-08-30T00:08:59;19.00;82.20
82231;DHT22;71832;45.138;9.816;2023-08-30T00:14:32;19.00;81.90
82231;DHT22;71832;45.138;9.816;2023-08-30T00:17:00;19.00;82.10
82231;DHT22;71832;45.138;9.816;2023-08-30T00:19:29;19.00;81.60
82231;DHT22;71832;45.138;9.816;2023-08-30T00:21:57;19.00;81.40
82231;DHT22;71832;45.138;9.816;2023-08-30T00:24:29;19.00;80.80
82231;DHT22;71832;45.138;9.816;2023-08-30T00:27:00;19.00;81.00
82231;DHT22;71832;45.138;9.816;2023-08-30T00:29:43;19.00;81.80
82231;DHT22;71832;45.138;9.816;2023-08-30T00:32:22;19.00;82.50
82231;DHT22;71832;45.138;9.816;2023-08-30T00:34:58;19.00;82.80
82231;DHT22;71832;45.138;9.816;2023-08-30T00:37:34;19.00;82.00
82231;DHT22;71832;45.138;9.816;2023-08-30T00:40:03;19.00;81.60
82231;DHT22;71832;45.138;9.816;2023-08-30T00:42:30;19.00;81.90
82231;DHT22;71832;45.138;9.816;2023-08-30T00:44:58;19.00;82.10
82231;DHT22;71832;45.138;9.816;2023-08-30T00:47:26;19.00;81.70
82231;DHT22;71832;45.138;9.816;2023-08-30T00:49:55;18.90;82.30
82231;DHT22;71832;45.138;9.816;2023-08-30T00:52:23;19.00;82.10
82231;DHT22;71832;45.138;9.816;2023-08-30T00:54:52;19.00;82.50
82231;DHT22;71832;45.138;9.816;2023-08-30T00:57:21;19.00;82.60
82231;DHT22;71832;45.138;9.816;2023-08-30T00:59:50;18.90;82.50
82231;DHT22;71832;45.138;9.816;2023-08-30T01:02:18;18.90;83.00
82231;DHT22;71832;45.138;9.816;2023-08-30T01:04:46;18.90;83.20
82231;DHT22;71832;45.138;9.816;2023-08-30T01:07:14;18.80;83.00
82231;DHT22;71832;45.138;9.816;2023-08-30T01:09:41;18.80;83.20
82231;DHT22;71832;45.138;9.816;2023-08-30T01:12:11;18.80;83.00
82231;DHT22;71832;45.138;9.816;2023-08-30T01:15:27;18.80;83.10
82231;DHT22;71832;45.138;9.816;2023-08-30T01:17:31;18.80;83.30
82231;DHT22;71832;45.138;9.816;2023-08-30T01:20:01;18.80;83.20
82231;DHT22;71832;45.138;9.816;2023-08-30T01:27:53;18.80;83.20
82231;DHT22;71832;45.138;9.816;2023-08-30T01:30:23;18.80;83.50
82231;DHT22;71832;45.138;9.816;2023-08-30T01:32:53;18.80;84.10
82231;DHT22;71832;45.138;9.816;2023-08-30T01:35:23;18.80;83.90
82231;DHT22;71832;45.138;9.816;2023-08-30T01:37:52;18.80;83.00
82231;DHT22;71832;45.138;9.816;2023-08-30T01:40:21;18.80;80.80
82231;DHT22;71832;45.138;9.816;2023-08-30T01:42:48;18.80;80.70
82231;DHT22;71832;45.138;9.816;2023-08-30T01:45:17;18.90;80.90
82231;DHT22;71832;45.138;9.816;2023-08-30T01:47:47;18.80;81.00
82231;DHT22;71832;45.138;9.816;2023-08-30T01:50:16;18.80;81.30
82231;DHT22;71832;45.138;9.816;2023-08-30T01:52:44;18.80;81.50
82231;DHT22;71832;45.138;9.816;2023-08-30T01:55:14;18.80;81.10
82231;DHT22;71832;45.138;9.816;2023-08-30T01:57:43;18.90;80.90
82231;DHT22;71832;45.138;9.816;2023-08-30T02:00:12;18.90;80.70
82231;DHT22;71832;45.138;9.816;2023-08-30T02:02:41;18.90;80.10
82231;DHT22;71832;45.138;9.816;2023-08-30T02:05:10;18.90;79.50
82231;DHT22;71832;45.138;9.816;2023-08-30T02:07:43;18.90;79.10
82231;DHT22;71832;45.138;9.816;2023-08-30T02:10:19;18.80;79.20
82231;DHT22;71832;45.138;9.816;2023-08-30T02:12:52;18.80;79.10
82231;DHT22;71832;45.138;9.816;2023-08-30T02:15:21;18.80;79.20
82231;DHT22;71832;45.138;9.816;2023-08-30T02:17:52;18.80;79.10
82231;DHT22;71832;45.138;9.816;2023-08-30T02:20:20;18.80;78.70
82231;DHT22;71832;45.138;9.816;2023-08-30T02:22:49;18.80;79.10
82231;DHT22;71832;45.138;9.816;2023-08-30T02:25:17;18.70;79.40
82231;DHT22;71832;45.138;9.816;2023-08-30T02:27:45;18.70;79.40
82231;DHT22;71832;45.138;9.816;2023-08-30T02:30:14;18.80;79.00
82231;DHT22;71832;45.138;9.816;2023-08-30T02:32:42;18.70;80.10
82231;DHT22;71832;45.138;9.816;2023-08-30T02:35:10;18.70;80.30
82231;DHT22;71832;45.138;9.816;2023-08-30T02:37:40;18.60;80.40
82231;DHT22;71832;45.138;9.816;2023-08-30T02:40:10;18.60;80.70
82231;DHT22;71832;45.138;9.816;2023-08-30T02:42:37;18.50;80.80
82231;DHT22;71832;45.138;9.816;2023-08-30T02:45:05;18.50;80.60
82231;DHT22;71832;45.138;9.816;2023-08-30T02:47:34;18.50;80.70
82231;DHT22;71832;45.138;9.816;2023-08-30T02:50:03;18.50;80.40
82231;DHT22;71832;45.138;9.816;2023-08-30T02:52:32;18.50;80.30
82231;DHT22;71832;45.138;9.816;2023-08-30T02:55:01;18.40;80.80
82231;DHT22;71832;45.138;9.816;2023-08-30T02:57:30;18.40;82.00
82231;DHT22;71832;45.138;9.816;2023-08-30T02:59:59;18.30;82.10
82231;DHT22;71832;45.138;9.816;2023-08-30T03:02:28;18.30;82.10
82231;DHT22;71832;45.138;9.816;2023-08-30T03:04:56;18.30;81.60
82231;DHT22;71832;45.138;9.816;2023-08-30T03:07:25;18.20;81.50
82231;DHT22;71832;45.138;9.816;2023-08-30T03:09:54;18.20;81.70
82231;DHT22;71832;45.138;9.816;2023-08-30T03:12:23;18.20;81.90
82231;DHT22;71832;45.138;9.816;2023-08-30T03:14:52;18.10;82.40
82231;DHT22;71832;45.138;9.816;2023-08-30T03:17:20;18.10;82.80
82231;DHT22;71832;45.138;9.816;2023-08-30T03:19:51;18.10;82.70
82231;DHT22;71832;45.138;9.816;2023-08-30T03:22:20;18.20;82.30
82231;DHT22;71832;45.138;9.816;2023-08-30T03:24:49;18.20;82.80
82231;DHT22;71832;45.138;9.816;2023-08-30T03:27:17;18.10;82.90
82231;DHT22;71832;45.138;9.816;2023-08-30T03:29:47;18.10;83.10
82231;DHT22;71832;45.138;9.816;2023-08-30T03:32:18;18.20;82.60
82231;DHT22;71832;45.138;9.816;2023-08-30T03:34:46;18.20;82.60
82231;DHT22;71832;45.138;9.816;2023-08-30T03:37:16;18.30;82.90
82231;DHT22;71832;45.138;9.816;2023-08-30T03:39:44;18.20;82.70
82231;DHT22;71832;45.138;9.816;2023-08-30T03:42:13;18.20;82.70
82231;DHT22;71832;45.138;9.816;2023-08-30T03:44:42;18.20;82.70
82231;DHT22;71832;45.138;9.816;2023-08-30T03:47:11;18.20;83.00
82231;DHT22;71832;45.138;9.816;2023-08-30T03:49:39;18.20;83.20
82231;DHT22;71832;45.138;9.816;2023-08-30T03:52:08;18.20;82.80
82231;DHT22;71832;45.138;9.816;2023-08-30T03:54:37;18.20;83.20
82231;DHT22;71832;45.138;9.816;2023-08-30T03:57:05;18.20;82.40
82231;DHT22;71832;45.138;9.816;2023-08-30T03:59:34;18.20;82.90
82231;DHT22;71832;45.138;9.816;2023-08-30T04:02:03;18.10;83.40
82231;DHT22;71832;45.138;9.816;2023-08-30T04:04:32;18.10;83.90
82231;DHT22;71832;45.138;9.816;2023-08-30T04:07:00;18.20;83.70
82231;DHT22;71832;45.138;9.816;2023-08-30T04:09:29;18.10;83.50
82231;DHT22;71832;45.138;9.816;2023-08-30T04:11:58;18.10;83.70
82231;DHT22;71832;45.138;9.816;2023-08-30T04:14:27;18.10;83.20
82231;DHT22;71832;45.138;9.816;2023-08-30T04:16:56;18.10;83.20
82231;DHT22;71832;45.138;9.816;2023-08-30T04:19:25;18.20;83.20
82231;DHT22;71832;45.138;9.816;2023-08-30T04:21:52;18.10;83.20
82231;DHT22;71832;45.138;9.816;2023-08-30T04:24:20;18.10;83.00
82231;DHT22;71832;45.138;9.816;2023-08-30T04:26:48;18.10;83.00
82231;DHT22;71832;45.138;9.816;2023-08-30T04:29:18;18.10;83.00
82231;DHT22;71832;45.138;9.816;2023-08-30T04:31:45;18.10;82.60
82231;DHT22;71832;45.138;9.816;2023-08-30T04:34:13;18.10;83.30
82231;DHT22;71832;45.138;9.816;2023-08-30T04:36:43;18.10;83.70
82231;DHT22;71832;45.138;9.816;2023-08-30T04:39:12;18.10;84.00
82231;DHT22;71832;45.138;9.816;2023-08-30T04:41:41;18.10;84.10
82231;DHT22;71832;45.138;9.816;2023-08-30T04:44:09;18.10;84.20
82231;DHT22;71832;45.138;9.816;2023-08-30T04:46:38;18.00;84.10
82231;DHT22;71832;45.138;9.816;2023-08-30T04:49:07;18.00;84.20
82231;DHT22;71832;45.138;9.816;2023-08-30T04:51:36;18.00;84.10
82231;DHT22;71832;45.138;9.816;2023-08-30T04:54:04;18.00;84.60
82231;DHT22;71832;45.138;9.816;2023-08-30T04:56:33;18.00;84.70
82231;DHT22;71832;45.138;9.816;2023-08-30T04:59:01;18.00;84.40
82231;DHT22;71832;45.138;9.816;2023-08-30T05:01:31;18.00;84.40
82231;DHT22;71832;45.138;9.816;2023-08-30T05:04:00;18.00;84.50
82231;DHT22;71832;45.138;9.816;2023-08-30T05:06:28;18.00;84.10
82231;DHT22;71832;45.138;9.816;2023-08-30T05:08:56;18.00;84.20
82231;DHT22;71832;45.138;9.816;2023-08-30T05:11:25;18.00;84.30
82231;DHT22;71832;45.138;9.816;2023-08-30T05:13:54;18.00;84.50
82231;DHT22;71832;45.138;9.816;2023-08-30T05:16:22;18.00;85.00
82231;DHT22;71832;45.138;9.816;2023-08-30T05:18:50;18.00;85.30
82231;DHT22;71832;45.138;9.816;2023-08-30T05:21:18;18.00;85.30
82231;DHT22;71832;45.138;9.816;2023-08-30T05:23:46;18.10;84.80
82231;DHT22;71832;45.138;9.816;2023-08-30T05:26:13;18.20;84.50
82231;DHT22;71832;45.138;9.816;2023-08-30T05:28:46;18.30;83.60
82231;DHT22;71832;45.138;9.816;2023-08-30T05:31:13;18.40;84.50
82231;DHT22;71832;45.138;9.816;2023-08-30T05:33:41;18.40;84.80
82231;DHT22;71832;45.138;9.816;2023-08-30T05:36:09;18.40;84.90
82231;DHT22;71832;45.138;9.816;2023-08-30T05:38:37;18.40;85.20
82231;DHT22;71832;45.138;9.816;2023-08-30T05:41:04;18.40;85.00
82231;DHT22;71832;45.138;9.816;2023-08-30T05:43:32;18.50;85.30
82231;DHT22;71832;45.138;9.816;2023-08-30T05:46:00;18.50;84.80
82231;DHT22;71832;45.138;9.816;2023-08-30T05:48:30;18.50;84.50
82231;DHT22;71832;45.138;9.816;2023-08-30T05:50:58;18.60;84.80
82231;DHT22;71832;45.138;9.816;2023-08-30T05:53:26;18.60;85.40
82231;DHT22;71832;45.138;9.816;2023-08-30T05:55:55;18.60;85.50
82231;DHT22;71832;45.138;9.816;2023-08-30T05:58:24;18.70;85.70
82231;DHT22;71832;45.138;9.816;2023-08-30T06:00:52;18.80;85.70
82231;DHT22;71832;45.138;9.816;2023-08-30T06:03:20;18.80;85.20
82231;DHT22;71832;45.138;9.816;2023-08-30T06:05:48;18.90;85.00
82231;DHT22;71832;45.138;9.816;2023-08-30T06:08:16;18.90;84.60
82231;DHT22;71832;45.138;9.816;2023-08-30T06:10:44;18.90;84.70
82231;DHT22;71832;45.138;9.816;2023-08-30T06:13:11;18.90;84.60
82231;DHT22;71832;45.138;9.816;2023-08-30T06:15:39;18.90;83.80
82231;DHT22;71832;45.138;9.816;2023-08-30T06:18:07;19.00;83.50
82231;DHT22;71832;45.138;9.816;2023-08-30T06:20:35;19.00;82.90
82231;DHT22;71832;45.138;9.816;2023-08-30T06:23:03;19.00;82.20
82231;DHT22;71832;45.138;9.816;2023-08-30T06:25:31;19.00;81.50
82231;DHT22;71832;45.138;9.816;2023-08-30T06:28:00;19.00;80.40
82231;DHT22;71832;45.138;9.816;2023-08-30T06:30:29;19.10;78.80
82231;DHT22;71832;45.138;9.816;2023-08-30T06:32:57;19.20;80.70
82231;DHT22;71832;45.138;9.816;2023-08-30T06:35:25;19.30;80.50
82231;DHT22;71832;45.138;9.816;2023-08-30T06:37:54;19.30;81.40
82231;DHT22;71832;45.138;9.816;2023-08-30T06:40:22;19.40;81.10
82231;DHT22;71832;45.138;9.816;2023-08-30T06:42:51;19.50;80.10
82231;DHT22;71832;45.138;9.816;2023-08-30T06:45:20;19.50;79.50
82231;DHT22;71832;45.138;9.816;2023-08-30T06:47:49;19.60;79.80
82231;DHT22;71832;45.138;9.816;2023-08-30T06:50:18;19.70;78.70
82231;DHT22;71832;45.138;9.816;2023-08-30T06:52:45;19.70;77.40
82231;DHT22;71832;45.138;9.816;2023-08-30T06:55:13;19.70;77.50
82231;DHT22;71832;45.138;9.816;2023-08-30T06:57:41;19.70;76.70
82231;DHT22;71832;45.138;9.816;2023-08-30T07:00:08;19.80;77.00
82231;DHT22;71832;45.138;9.816;2023-08-30T07:02:38;19.80;77.80
82231;DHT22;71832;45.138;9.816;2023-08-30T07:05:05;19.80;76.10
82231;DHT22;71832;45.138;9.816;2023-08-30T07:07:33;19.80;77.10
82231;DHT22;71832;45.138;9.816;2023-08-30T07:10:00;19.70;76.10
82231;DHT22;71832;45.138;9.816;2023-08-30T07:12:30;19.70;75.80
82231;DHT22;71832;45.138;9.816;2023-08-30T07:14:59;19.70;76.50
82231;DHT22;71832;45.138;9.816;2023-08-30T07:17:27;19.70;76.10
82231;DHT22;71832;45.138;9.816;2023-08-30T07:19:55;19.70;76.20
82231;DHT22;71832;45.138;9.816;2023-08-30T07:22:25;19.70;77.00
82231;DHT22;71832;45.138;9.816;2023-08-30T07:24:52;19.80;77.50
82231;DHT22;71832;45.138;9.816;2023-08-30T07:27:20;19.90;77.50
82231;DHT22;71832;45.138;9.816;2023-08-30T07:29:48;20.00;76.10
82231;DHT22;71832;45.138;9.816;2023-08-30T07:32:16;20.00;74.90
82231;DHT22;71832;45.138;9.816;2023-08-30T07:34:44;20.00;73.50
82231;DHT22;71832;45.138;9.816;2023-08-30T07:37:22;20.00;74.00
82231;DHT22;71832;45.138;9.816;2023-08-30T07:39:50;20.10;74.60
82231;DHT22;71832;45.138;9.816;2023-08-30T07:42:18;20.10;75.50
82231;DHT22;71832;45.138;9.816;2023-08-30T07:44:46;20.10;75.70
82231;DHT22;71832;45.138;9.816;2023-08-30T07:47:13;20.30;76.00
82231;DHT22;71832;45.138;9.816;2023-08-30T07:49:41;20.30;74.10
82231;DHT22;71832;45.138;9.816;2023-08-30T07:52:10;20.40;74.70
82231;DHT22;71832;45.138;9.816;2023-08-30T07:54:39;20.50;73.60
82231;DHT22;71832;45.138;9.816;2023-08-30T07:57:07;20.50;73.70
82231;DHT22;71832;45.138;9.816;2023-08-30T07:59:36;20.60;74.00
82231;DHT22;71832;45.138;9.816;2023-08-30T08:02:05;20.60;74.50
82231;DHT22;71832;45.138;9.816;2023-08-30T08:04:34;20.70;74.10
82231;DHT22;71832;45.138;9.816;2023-08-30T08:07:03;20.80;72.50
82231;DHT22;71832;45.138;9.816;2023-08-30T08:09:31;20.80;71.70
82231;DHT22;71832;45.138;9.816;2023-08-30T08:12:00;20.90;70.90
82231;DHT22;71832;45.138;9.816;2023-08-30T08:14:27;21.00;69.30
82231;DHT22;71832;45.138;9.816;2023-08-30T08:16:55;21.00;69.20
82231;DHT22;71832;45.138;9.816;2023-08-30T08:19:23;21.10;68.40
82231;DHT22;71832;45.138;9.816;2023-08-30T08:21:51;21.10;68.50
82231;DHT22;71832;45.138;9.816;2023-08-30T08:24:21;21.20;68.00
82231;DHT22;71832;45.138;9.816;2023-08-30T08:26:50;21.30;68.10
82231;DHT22;71832;45.138;9.816;2023-08-30T08:29:19;21.30;66.40
82231;DHT22;71832;45.138;9.816;2023-08-30T08:31:47;21.40;66.70
82231;DHT22;71832;45.138;9.816;2023-08-30T08:34:15;21.50;66.30
82231;DHT22;71832;45.138;9.816;2023-08-30T08:36:44;21.50;63.60
82231;DHT22;71832;45.138;9.816;2023-08-30T08:39:12;21.50;66.20
82231;DHT22;71832;45.138;9.816;2023-08-30T08:41:42;21.60;67.00
82231;DHT22;71832;45.138;9.816;2023-08-30T08:44:11;21.70;66.00
82231;DHT22;71832;45.138;9.816;2023-08-30T08:46:41;21.70;64.90
82231;DHT22;71832;45.138;9.816;2023-08-30T08:49:12;21.80;63.50
82231;DHT22;71832;45.138;9.816;2023-08-30T08:51:41;21.90;63.80
82231;DHT22;71832;45.138;9.816;2023-08-30T08:54:11;21.90;64.10
82231;DHT22;71832;45.138;9.816;2023-08-30T08:56:39;21.90;64.50
82231;DHT22;71832;45.138;9.816;2023-08-30T08:59:07;22.00;63.80
82231;DHT22;71832;45.138;9.816;2023-08-30T09:01:36;22.10;61.40
82231;DHT22;71832;45.138;9.816;2023-08-30T09:04:08;22.10;60.80
82231;DHT22;71832;45.138;9.816;2023-08-30T09:06:38;22.10;61.50
82231;DHT22;71832;45.138;9.816;2023-08-30T09:09:09;22.20;61.00
82231;DHT22;71832;45.138;9.816;2023-08-30T09:11:37;22.20;61.70
82231;DHT22;71832;45.138;9.816;2023-08-30T09:14:05;22.30;63.40
82231;DHT22;71832;45.138;9.816;2023-08-30T09:16:34;22.50;62.00
82231;DHT22;71832;45.138;9.816;2023-08-30T09:19:04;22.50;61.90
82231;DHT22;71832;45.138;9.816;2023-08-30T09:21:33;22.50;62.30
82231;DHT22;71832;45.138;9.816;2023-08-30T09:24:03;22.60;60.40
82231;DHT22;71832;45.138;9.816;2023-08-30T09:26:32;22.60;60.30
82231;DHT22;71832;45.138;9.816;2023-08-30T09:29:05;22.70;60.60
82231;DHT22;71832;45.138;9.816;2023-08-30T09:31:34;22.70;62.00
82231;DHT22;71832;45.138;9.816;2023-08-30T09:34:03;22.80;62.00
82231;DHT22;71832;45.138;9.816;2023-08-30T09:36:42;22.80;60.30
82231;DHT22;71832;45.138;9.816;2023-08-30T09:39:10;22.90;59.10
82231;DHT22;71832;45.138;9.816;2023-08-30T09:44:11;23.00;59.40
82231;DHT22;71832;45.138;9.816;2023-08-30T09:46:58;23.00;57.60
82231;DHT22;71832;45.138;9.816;2023-08-30T09:49:27;23.10;58.60
82231;DHT22;71832;45.138;9.816;2023-08-30T09:51:55;23.10;60.20
82231;DHT22;71832;45.138;9.816;2023-08-30T09:54:26;23.20;58.90
82231;DHT22;71832;45.138;9.816;2023-08-30T09:56:56;23.30;59.00
82231;DHT22;71832;45.138;9.816;2023-08-30T09:59:25;23.20;57.90
82231;DHT22;71832;45.138;9.816;2023-08-30T10:01:54;23.20;58.90
82231;DHT22;71832;45.138;9.816;2023-08-30T10:04:23;23.30;60.20
82231;DHT22;71832;45.138;9.816;2023-08-30T10:06:52;23.40;58.60
82231;DHT22;71832;45.138;9.816;2023-08-30T10:09:22;23.40;57.60
82231;DHT22;71832;45.138;9.816;2023-08-30T10:11:51;23.50;57.10
82231;DHT22;71832;45.138;9.816;2023-08-30T10:14:20;23.50;55.50
82231;DHT22;71832;45.138;9.816;2023-08-30T10:16:49;23.50;56.50
82231;DHT22;71832;45.138;9.816;2023-08-30T10:19:25;23.50;57.30
82231;DHT22;71832;45.138;9.816;2023-08-30T10:24:31;23.60;57.20
82231;DHT22;71832;45.138;9.816;2023-08-30T10:27:03;23.60;57.70
82231;DHT22;71832;45.138;9.816;2023-08-30T10:29:34;23.80;57.30
82231;DHT22;71832;45.138;9.816;2023-08-30T10:32:05;23.80;55.80
82231;DHT22;71832;45.138;9.816;2023-08-30T10:34:34;23.90;55.90
82231;DHT22;71832;45.138;9.816;2023-08-30T10:37:06;24.00;55.00
82231;DHT22;71832;45.138;9.816;2023-08-30T10:39:37;24.00;56.00
82231;DHT22;71832;45.138;9.816;2023-08-30T10:42:15;24.00;55.30
82231;DHT22;71832;45.138;9.816;2023-08-30T10:47:31;24.20;55.70
82231;DHT22;71832;45.138;9.816;2023-08-30T10:50:00;24.20;55.20
82231;DHT22;71832;45.138;9.816;2023-08-30T10:52:31;24.20;54.10
82231;DHT22;71832;45.138;9.816;2023-08-30T10:55:09;24.20;55.80
82231;DHT22;71832;45.138;9.816;2023-08-30T10:57:37;24.30;55.20
82231;DHT22;71832;45.138;9.816;2023-08-30T11:02:37;24.40;56.00
82231;DHT22;71832;45.138;9.816;2023-08-30T11:05:08;24.40;55.20
82231;DHT22;71832;45.138;9.816;2023-08-30T11:07:35;24.40;53.60
82231;DHT22;71832;45.138;9.816;2023-08-30T11:10:05;24.40;53.80
82231;DHT22;71832;45.138;9.816;2023-08-30T11:12:33;24.40;53.90
82231;DHT22;71832;45.138;9.816;2023-08-30T11:15:02;24.40;54.70
82231;DHT22;71832;45.138;9.816;2023-08-30T11:17:29;24.40;54.50
82231;DHT22;71832;45.138;9.816;2023-08-30T11:20:05;24.50;53.60
82231;DHT22;71832;45.138;9.816;2023-08-30T11:22:36;24.60;53.30
82231;DHT22;71832;45.138;9.816;2023-08-30T11:25:04;24.60;53.20
82231;DHT22;71832;45.138;9.816;2023-08-30T11:27:32;24.60;53.40
82231;DHT22;71832;45.138;9.816;2023-08-30T11:30:01;24.70;52.70
82231;DHT22;71832;45.138;9.816;2023-08-30T11:32:34;24.70;48.70
82231;DHT22;71832;45.138;9.816;2023-08-30T11:35:03;24.70;51.20
82231;DHT22;71832;45.138;9.816;2023-08-30T11:37:32;24.70;51.90
82231;DHT22;71832;45.138;9.816;2023-08-30T11:40:02;24.80;52.80
82231;DHT22;71832;45.138;9.816;2023-08-30T11:42:31;24.90;52.70
82231;DHT22;71832;45.138;9.816;2023-08-30T11:44:59;25.00;51.90
82231;DHT22;71832;45.138;9.816;2023-08-30T11:47:28;25.00;50.10
82231;DHT22;71832;45.138;9.816;2023-08-30T11:49:57;25.00;49.70
82231;DHT22;71832;45.138;9.816;2023-08-30T11:52:26;25.00;50.60
82231;DHT22;71832;45.138;9.816;2023-08-30T11:54:56;25.00;50.90
82231;DHT22;71832;45.138;9.816;2023-08-30T11:57:25;25.00;49.80
82231;DHT22;71832;45.138;9.816;2023-08-30T11:59:55;25.10;49.80
82231;DHT22;71832;45.138;9.816;2023-08-30T12:02:23;25.20;51.10
82231;DHT22;71832;45.138;9.816;2023-08-30T12:04:51;25.30;50.90
82231;DHT22;71832;45.138;9.816;2023-08-30T12:07:29;25.40;50.00
82231;DHT22;71832;45.138;9.816;2023-08-30T12:10:17;25.60;50.30
82231;DHT22;71832;45.138;9.816;2023-08-30T12:12:47;25.60;50.10
82231;DHT22;71832;45.138;9.816;2023-08-30T12:15:15;25.80;49.80
82231;DHT22;71832;45.138;9.816;2023-08-30T12:17:43;25.80;48.40
82231;DHT22;71832;45.138;9.816;2023-08-30T12:20:19;26.00;49.40
82231;DHT22;71832;45.138;9.816;2023-08-30T12:22:50;26.00;48.50
82231;DHT22;71832;45.138;9.816;2023-08-30T12:25:20;26.10;48.00
82231;DHT22;71832;45.138;9.816;2023-08-30T12:27:50;26.10;49.20
82231;DHT22;71832;45.138;9.816;2023-08-30T12:30:18;26.20;48.80
82231;DHT22;71832;45.138;9.816;2023-08-30T12:32:46;26.30;48.10
82231;DHT22;71832;45.138;9.816;2023-08-30T12:35:14;26.40;46.30
82231;DHT22;71832;45.138;9.816;2023-08-30T12:37:44;26.50;46.20
82231;DHT22;71832;45.138;9.816;2023-08-30T12:40:11;26.60;45.20
82231;DHT22;71832;45.138;9.816;2023-08-30T12:42:39;26.70;45.00
82231;DHT22;71832;45.138;9.816;2023-08-30T12:45:07;26.80;45.80
82231;DHT22;71832;45.138;9.816;2023-08-30T12:47:34;26.80;45.40
82231;DHT22;71832;45.138;9.816;2023-08-30T12:50:02;26.70;46.50
82231;DHT22;71832;45.138;9.816;2023-08-30T12:52:29;26.60;45.30
82231;DHT22;71832;45.138;9.816;2023-08-30T12:54:57;26.60;43.60
82231;DHT22;71832;45.138;9.816;2023-08-30T12:57:24;26.50;44.30
82231;DHT22;71832;45.138;9.816;2023-08-30T12:59:52;26.40;47.20
82231;DHT22;71832;45.138;9.816;2023-08-30T13:02:20;26.40;47.80
82231;DHT22;71832;45.138;9.816;2023-08-30T13:04:47;26.40;46.60
82231;DHT22;71832;45.138;9.816;2023-08-30T13:07:15;26.40;44.40
82231;DHT22;71832;45.138;9.816;2023-08-30T13:09:44;26.30;45.40
82231;DHT22;71832;45.138;9.816;2023-08-30T13:12:13;26.20;47.60
82231;DHT22;71832;45.138;9.816;2023-08-30T13:14:41;26.10;48.10
82231;DHT22;71832;45.138;9.816;2023-08-30T13:17:08;26.00;49.60
82231;DHT22;71832;45.138;9.816;2023-08-30T13:19:36;26.00;49.20
82231;DHT22;71832;45.138;9.816;2023-08-30T13:22:05;26.00;47.20
82231;DHT22;71832;45.138;9.816;2023-08-30T13:24:32;25.90;46.90
82231;DHT22;71832;45.138;9.816;2023-08-30T13:27:00;25.80;48.50
82231;DHT22;71832;45.138;9.816;2023-08-30T13:29:28;25.80;48.80
82231;DHT22;71832;45.138;9.816;2023-08-30T13:31:56;25.80;49.10
82231;DHT22;71832;45.138;9.816;2023-08-30T13:34:25;26.00;48.10
82231;DHT22;71832;45.138;9.816;2023-08-30T13:36:54;26.00;46.60
82231;DHT22;71832;45.138;9.816;2023-08-30T13:39:22;26.00;48.40
82231;DHT22;71832;45.138;9.816;2023-08-30T13:41:51;26.10;48.60
82231;DHT22;71832;45.138;9.816;2023-08-30T13:44:19;26.20;47.20
82231;DHT22;71832;45.138;9.816;2023-08-30T13:46:47;26.30;47.10
82231;DHT22;71832;45.138;9.816;2023-08-30T13:49:18;26.40;47.80
82231;DHT22;71832;45.138;9.816;2023-08-30T13:51:47;26.40;47.80
82231;DHT22;71832;45.138;9.816;2023-08-30T13:54:16;26.40;46.50
82231;DHT22;71832;45.138;9.816;2023-08-30T13:56:44;26.40;46.50
82231;DHT22;71832;45.138;9.816;2023-08-30T13:59:13;26.40;47.00
82231;DHT22;71832;45.138;9.816;2023-08-30T14:01:41;26.40;47.00
82231;DHT22;71832;45.138;9.816;2023-08-30T14:04:09;26.40;47.50
82231;DHT22;71832;45.138;9.816;2023-08-30T14:06:37;26.50;46.50
82231;DHT22;71832;45.138;9.816;2023-08-30T14:09:06;26.50;48.00
82231;DHT22;71832;45.138;9.816;2023-08-30T14:11:35;26.40;45.50
82231;DHT22;71832;45.138;9.816;2023-08-30T14:14:04;26.40;44.30
82231;DHT22;71832;45.138;9.816;2023-08-30T14:16:32;26.40;45.30
82231;DHT22;71832;45.138;9.816;2023-08-30T14:19:00;26.40;47.10
82231;DHT22;71832;45.138;9.816;2023-08-30T14:21:32;26.40;46.40
82231;DHT22;71832;45.138;9.816;2023-08-30T14:24:00;26.40;47.30
82231;DHT22;71832;45.138;9.816;2023-08-30T14:26:29;26.40;47.00
82231;DHT22;71832;45.138;9.816;2023-08-30T14:28:57;26.40;44.90
82231;DHT22;71832;45.138;9.816;2023-08-30T14:31:25;26.40;45.60
82231;DHT22;71832;45.138;9.816;2023-08-30T14:33:55;26.40;45.30
82231;DHT22;71832;45.138;9.816;2023-08-30T14:36:24;26.50;44.60
82231;DHT22;71832;45.138;9.816;2023-08-30T14:38:53;26.50;46.00
82231;DHT22;71832;45.138;9.816;2023-08-30T14:41:22;26.50;46.90
82231;DHT22;71832;45.138;9.816;2023-08-30T14:43:50;26.50;48.20
82231;DHT22;71832;45.138;9.816;2023-08-30T14:46:19;26.50;48.00
82231;DHT22;71832;45.138;9.816;2023-08-30T14:48:47;26.50;47.50
82231;DHT22;71832;45.138;9.816;2023-08-30T14:51:15;26.50;47.50
82231;DHT22;71832;45.138;9.816;2023-08-30T14:53:44;26.50;45.50
82231;DHT22;71832;45.138;9.816;2023-08-30T14:56:13;26.50;46.50
82231;DHT22;71832;45.138;9.816;2023-08-30T14:58:41;26.50;46.60
82231;DHT22;71832;45.138;9.816;2023-08-30T15:01:10;26.50;46.40
82231;DHT22;71832;45.138;9.816;2023-08-30T15:03:38;26.50;46.20
82231;DHT22;71832;45.138;9.816;2023-08-30T15:06:07;26.50;46.80
82231;DHT22;71832;45.138;9.816;2023-08-30T15:08:36;26.50;47.20
82231;DHT22;71832;45.138;9.816;2023-08-30T15:11:05;26.50;44.70
82231;DHT22;71832;45.138;9.816;2023-08-30T15:13:36;26.50;42.50
82231;DHT22;71832;45.138;9.816;2023-08-30T15:16:05;26.50;41.10
82231;DHT22;71832;45.138;9.816;2023-08-30T15:18:33;26.50;40.30
82231;DHT22;71832;45.138;9.816;2023-08-30T15:21:02;26.50;39.50
82231;DHT22;71832;45.138;9.816;2023-08-30T15:23:30;26.50;39.40
82231;DHT22;71832;45.138;9.816;2023-08-30T15:25:58;26.40;41.50
82231;DHT22;71832;45.138;9.816;2023-08-30T15:28:25;26.30;40.90
82231;DHT22;71832;45.138;9.816;2023-08-30T15:30:53;26.20;42.20
82231;DHT22;71832;45.138;9.816;2023-08-30T15:33:21;26.20;42.00
82231;DHT22;71832;45.138;9.816;2023-08-30T15:35:51;26.20;43.30
82231;DHT22;71832;45.138;9.816;2023-08-30T15:38:20;26.20;43.70
82231;DHT22;71832;45.138;9.816;2023-08-30T15:40:54;26.30;45.20
82231;DHT22;71832;45.138;9.816;2023-08-30T15:43:24;26.30;41.00
82231;DHT22;71832;45.138;9.816;2023-08-30T15:45:53;26.40;42.70
82231;DHT22;71832;45.138;9.816;2023-08-30T15:48:22;26.30;38.20
82231;DHT22;71832;45.138;9.816;2023-08-30T15:50:50;26.20;38.50
82231;DHT22;71832;45.138;9.816;2023-08-30T15:53:19;26.20;39.80
82231;DHT22;71832;45.138;9.816;2023-08-30T15:55:48;26.20;43.90
82231;DHT22;71832;45.138;9.816;2023-08-30T15:58:16;26.20;43.20
82231;DHT22;71832;45.138;9.816;2023-08-30T16:00:45;26.20;43.30